sensor_id;sensor_type;location;lat;lon;timestamp;P1;durP1;ratioP1;P2;durP2;ratioP2
17937;SDS011;16051;53.024;8.630;2023-03-24T00:03:27;5.53;;;2.93;;
17937;SDS011;16051;53.024;8.630;2023-03-24T00:07:30;8.00;;;3.40;;
17937;SDS011;16051;53.024;8.630;2023-03-24T00:11:36;6.23;;;2.50;;
17937;SDS011;16051;53.024;8.630;2023-03-24T00:15:38;4.17;;;2.93;;
17937;SDS011;16051;53.024;8.630;2023-03-24T00:19:40;4.77;;;2.60;;
17937;SDS011;16051;53.024;8.630;2023-03-24T00:23:45;3.03;;;2.57;;
17937;SDS011;16051;53.024;8.630;2023-03-24T00:27:49;6.73;;;3.03;;
17937;SDS011;16051;53.024;8.630;2023-03-24T00:31:52;3.80;;;2.13;;
17937;SDS011;16051;53.024;8.630;2023-03-24T00:35:54;8.57;;;2.97;;
17937;SDS011;16051;53.024;8.630;2023-03-24T00:40:05;5.83;;;2.97;;
17937;SDS011;16051;53.024;8.630;2023-03-24T00:44:13;5.27;;;2.90;;
17937;SDS011;16051;53.024;8.630;2023-03-24T00:48:18;5.87;;;2.97;;
17937;SDS011;16051;53.024;8.630;2023-03-24T00:52:23;7.03;;;2.80;;
17937;SDS011;16051;53.024;8.630;2023-03-24T00:56:26;4.17;;;2.80;;
17937;SDS011;16051;53.024;8.630;2023-03-24T01:00:31;3.80;;;2.43;;
17937;SDS011;16051;53.024;8.630;2023-03-24T01:04:34;4.47;;;2.80;;
17937;SDS011;16051;53.024;8.630;2023-03-24T01:08:36;3.57;;;2.50;;
17937;SDS011;16051;53.024;8.630;2023-03-24T01:12:45;4.37;;;2.93;;
17937;SDS011;16051;53.024;8.630;2023-03-24T01:16:49;7.57;;;2.93;;
17937;SDS011;16051;53.024;8.630;2023-03-24T01:20:52;5.50;;;2.93;;
17937;SDS011;16051;53.024;8.630;2023-03-24T01:24:54;5.47;;;3.23;;
17937;SDS011;16051;53.024;8.630;2023-03-24T01:28:57;5.13;;;2.80;;
17937;SDS011;16051;53.024;8.630;2023-03-24T01:33:00;4.93;;;3.23;;
17937;SDS011;16051;53.024;8.630;2023-03-24T01:37:02;5.40;;;3.43;;
17937;SDS011;16051;53.024;8.630;2023-03-24T01:41:05;5.03;;;3.23;;
17937;SDS011;16051;53.024;8.630;2023-03-24T01:49:46;6.50;;;3.10;;
17937;SDS011;16051;53.024;8.630;2023-03-24T01:53:54;4.83;;;2.97;;
17937;SDS011;16051;53.024;8.630;2023-03-24T01:58:01;6.17;;;3.57;;
17937;SDS011;16051;53.024;8.630;2023-03-24T02:02:04;5.10;;;3.40;;
17937;SDS011;16051;53.024;8.630;2023-03-24T02:06:08;7.03;;;3.10;;
17937;SDS011;16051;53.024;8.630;2023-03-24T02:10:14;7.37;;;3.10;;
17937;SDS011;16051;53.024;8.630;2023-03-24T02:14:19;4.13;;;3.20;;
17937;SDS011;16051;53.024;8.630;2023-03-24T02:18:23;5.63;;;3.50;;
17937;SDS011;16051;53.024;8.630;2023-03-24T02:22:38;5.53;;;3.73;;
17937;SDS011;16051;53.024;8.630;2023-03-24T02:27:21;5.10;;;3.43;;
17937;SDS011;16051;53.024;8.630;2023-03-24T02:31:53;6.10;;;3.67;;
17937;SDS011;16051;53.024;8.630;2023-03-24T02:41:09;4.20;;;3.60;;
17937;SDS011;16051;53.024;8.630;2023-03-24T02:45:23;5.20;;;3.90;;
17937;SDS011;16051;53.024;8.630;2023-03-24T02:49:36;5.70;;;4.37;;
17937;SDS011;16051;53.024;8.630;2023-03-24T02:53:50;5.60;;;3.50;;
17937;SDS011;16051;53.024;8.630;2023-03-24T02:58:04;7.00;;;3.73;;
17937;SDS011;16051;53.024;8.630;2023-03-24T03:02:16;4.70;;;4.27;;
17937;SDS011;16051;53.024;8.630;2023-03-24T03:06:26;6.10;;;4.50;;
17937;SDS011;16051;53.024;8.630;2023-03-24T03:10:32;5.57;;;4.43;;
17937;SDS011;16051;53.024;8.630;2023-03-24T03:14:40;5.20;;;3.60;;
17937;SDS011;16051;53.024;8.630;2023-03-24T03:18:49;6.00;;;4.23;;
17937;SDS011;16051;53.024;8.630;2023-03-24T03:22:57;4.53;;;4.13;;
17937;SDS011;16051;53.024;8.630;2023-03-24T03:27:05;4.53;;;4.03;;
17937;SDS011;16051;53.024;8.630;2023-03-24T03:31:15;5.37;;;4.07;;
17937;SDS011;16051;53.024;8.630;2023-03-24T03:35:29;7.70;;;4.20;;
17937;SDS011;16051;53.024;8.630;2023-03-24T03:39:39;5.00;;;4.50;;
17937;SDS011;16051;53.024;8.630;2023-03-24T03:43:47;4.73;;;4.10;;
17937;SDS011;16051;53.024;8.630;2023-03-24T03:47:52;5.40;;;4.43;;
17937;SDS011;16051;53.024;8.630;2023-03-24T03:51:54;5.47;;;4.40;;
17937;SDS011;16051;53.024;8.630;2023-03-24T03:55:56;4.50;;;4.10;;
17937;SDS011;16051;53.024;8.630;2023-03-24T03:59:59;5.43;;;4.40;;
17937;SDS011;16051;53.024;8.630;2023-03-24T04:04:18;5.23;;;4.60;;
17937;SDS011;16051;53.024;8.630;2023-03-24T04:13:05;5.47;;;4.70;;
17937;SDS011;16051;53.024;8.630;2023-03-24T04:17:23;6.37;;;4.83;;
17937;SDS011;16051;53.024;8.630;2023-03-24T04:21:50;4.53;;;4.13;;
17937;SDS011;16051;53.024;8.630;2023-03-24T04:26:14;4.77;;;4.37;;
17937;SDS011;16051;53.024;8.630;2023-03-24T04:30:26;5.23;;;4.50;;
17937;SDS011;16051;53.024;8.630;2023-03-24T04:34:39;5.73;;;4.73;;
17937;SDS011;16051;53.024;8.630;2023-03-24T04:38:51;5.00;;;4.50;;
17937;SDS011;16051;53.024;8.630;2023-03-24T04:43:08;4.90;;;4.40;;
17937;SDS011;16051;53.024;8.630;2023-03-24T04:47:16;4.73;;;4.30;;
17937;SDS011;16051;53.024;8.630;2023-03-24T04:51:22;5.30;;;4.80;;
17937;SDS011;16051;53.024;8.630;2023-03-24T04:55:44;5.37;;;4.70;;
17937;SDS011;16051;53.024;8.630;2023-03-24T04:59:58;5.03;;;4.60;;
17937;SDS011;16051;53.024;8.630;2023-03-24T05:04:01;5.47;;;4.97;;
17937;SDS011;16051;53.024;8.630;2023-03-24T05:08:04;5.87;;;4.83;;
17937;SDS011;16051;53.024;8.630;2023-03-24T05:12:08;6.60;;;4.57;;
17937;SDS011;16051;53.024;8.630;2023-03-24T05:16:12;4.73;;;4.30;;
17937;SDS011;16051;53.024;8.630;2023-03-24T05:20:15;5.10;;;4.60;;
17937;SDS011;16051;53.024;8.630;2023-03-24T05:24:17;4.90;;;4.40;;
17937;SDS011;16051;53.024;8.630;2023-03-24T05:28:20;4.30;;;3.90;;
17937;SDS011;16051;53.024;8.630;2023-03-24T05:32:23;4.70;;;4.30;;
17937;SDS011;16051;53.024;8.630;2023-03-24T05:36:26;5.07;;;4.10;;
17937;SDS011;16051;53.024;8.630;2023-03-24T05:40:28;5.00;;;4.50;;
17937;SDS011;16051;53.024;8.630;2023-03-24T05:44:31;4.53;;;4.13;;
17937;SDS011;16051;53.024;8.630;2023-03-24T05:48:34;4.33;;;3.97;;
17937;SDS011;16051;53.024;8.630;2023-03-24T05:52:36;4.17;;;3.73;;
17937;SDS011;16051;53.024;8.630;2023-03-24T05:56:51;3.47;;;3.17;;
17937;SDS011;16051;53.024;8.630;2023-03-24T06:00:54;3.07;;;2.80;;
17937;SDS011;16051;53.024;8.630;2023-03-24T06:04:56;3.87;;;2.33;;
17937;SDS011;16051;53.024;8.630;2023-03-24T06:09:13;3.07;;;2.40;;
17937;SDS011;16051;53.024;8.630;2023-03-24T06:13:16;3.07;;;2.13;;
17937;SDS011;16051;53.024;8.630;2023-03-24T06:17:20;3.00;;;1.90;;
17937;SDS011;16051;53.024;8.630;2023-03-24T06:21:23;2.07;;;1.53;;
17937;SDS011;16051;53.024;8.630;2023-03-24T06:25:37;2.77;;;1.50;;
17937;SDS011;16051;53.024;8.630;2023-03-24T06:29:43;4.23;;;1.40;;
17937;SDS011;16051;53.024;8.630;2023-03-24T06:33:47;1.73;;;1.30;;
17937;SDS011;16051;53.024;8.630;2023-03-24T06:37:50;4.50;;;1.23;;
17937;SDS011;16051;53.024;8.630;2023-03-24T06:41:52;4.33;;;1.27;;
17937;SDS011;16051;53.024;8.630;2023-03-24T06:45:54;2.70;;;1.37;;
17937;SDS011;16051;53.024;8.630;2023-03-24T06:50:03;5.17;;;1.50;;
17937;SDS011;16051;53.024;8.630;2023-03-24T06:54:07;3.70;;;1.73;;
17937;SDS011;16051;53.024;8.630;2023-03-24T06:58:09;4.00;;;1.40;;
17937;SDS011;16051;53.024;8.630;2023-03-24T07:02:11;7.47;;;1.93;;
17937;SDS011;16051;53.024;8.630;2023-03-24T07:06:16;5.10;;;1.60;;
17937;SDS011;16051;53.024;8.630;2023-03-24T07:10:19;6.67;;;2.77;;
17937;SDS011;16051;53.024;8.630;2023-03-24T07:14:21;3.43;;;2.17;;
17937;SDS011;16051;53.024;8.630;2023-03-24T07:18:25;4.77;;;2.00;;
17937;SDS011;16051;53.024;8.630;2023-03-24T07:26:35;4.90;;;1.90;;
17937;SDS011;16051;53.024;8.630;2023-03-24T07:30:38;5.53;;;1.87;;
17937;SDS011;16051;53.024;8.630;2023-03-24T07:34:45;6.77;;;2.47;;
17937;SDS011;16051;53.024;8.630;2023-03-24T07:38:49;4.57;;;1.60;;
17937;SDS011;16051;53.024;8.630;2023-03-24T07:57:31;7.27;;;1.73;;
17937;SDS011;16051;53.024;8.630;2023-03-24T08:01:36;7.93;;;2.17;;
17937;SDS011;16051;53.024;8.630;2023-03-24T08:05:38;6.50;;;1.93;;
17937;SDS011;16051;53.024;8.630;2023-03-24T08:09:42;5.83;;;1.80;;
17937;SDS011;16051;53.024;8.630;2023-03-24T08:13:47;6.77;;;1.70;;
17937;SDS011;16051;53.024;8.630;2023-03-24T08:17:49;7.43;;;1.93;;
17937;SDS011;16051;53.024;8.630;2023-03-24T08:21:51;9.00;;;2.03;;
17937;SDS011;16051;53.024;8.630;2023-03-24T08:25:54;6.13;;;1.80;;
17937;SDS011;16051;53.024;8.630;2023-03-24T08:29:57;5.13;;;1.60;;
17937;SDS011;16051;53.024;8.630;2023-03-24T08:34:00;5.47;;;1.93;;
17937;SDS011;16051;53.024;8.630;2023-03-24T08:38:11;11.37;;;2.10;;
17937;SDS011;16051;53.024;8.630;2023-03-24T08:42:13;5.77;;;2.07;;
17937;SDS011;16051;53.024;8.630;2023-03-24T08:46:17;5.63;;;2.20;;
17937;SDS011;16051;53.024;8.630;2023-03-24T08:50:20;6.80;;;1.70;;
17937;SDS011;16051;53.024;8.630;2023-03-24T08:54:24;6.10;;;2.00;;
17937;SDS011;16051;53.024;8.630;2023-03-24T08:58:35;6.90;;;2.13;;
17937;SDS011;16051;53.024;8.630;2023-03-24T09:02:41;4.40;;;1.63;;
17937;SDS011;16051;53.024;8.630;2023-03-24T09:06:45;6.73;;;1.53;;
17937;SDS011;16051;53.024;8.630;2023-03-24T09:10:49;7.97;;;2.73;;
17937;SDS011;16051;53.024;8.630;2023-03-24T09:14:55;8.07;;;1.83;;
17937;SDS011;16051;53.024;8.630;2023-03-24T09:18:59;3.83;;;1.50;;
17937;SDS011;16051;53.024;8.630;2023-03-24T09:23:01;5.27;;;1.30;;
17937;SDS011;16051;53.024;8.630;2023-03-24T09:27:05;7.17;;;1.80;;
17937;SDS011;16051;53.024;8.630;2023-03-24T09:31:07;5.60;;;2.07;;
17937;SDS011;16051;53.024;8.630;2023-03-24T09:35:12;6.73;;;1.93;;
17937;SDS011;16051;53.024;8.630;2023-03-24T09:39:14;6.33;;;2.13;;
17937;SDS011;16051;53.024;8.630;2023-03-24T09:43:19;7.53;;;1.97;;
17937;SDS011;16051;53.024;8.630;2023-03-24T09:47:27;7.43;;;2.03;;
17937;SDS011;16051;53.024;8.630;2023-03-24T09:51:43;13.33;;;2.33;;
17937;SDS011;16051;53.024;8.630;2023-03-24T09:55:46;5.83;;;2.37;;
17937;SDS011;16051;53.024;8.630;2023-03-24T10:00:08;6.70;;;1.97;;
17937;SDS011;16051;53.024;8.630;2023-03-24T10:04:19;7.57;;;1.90;;
17937;SDS011;16051;53.024;8.630;2023-03-24T10:08:29;7.67;;;1.87;;
17937;SDS011;16051;53.024;8.630;2023-03-24T10:12:36;8.13;;;2.07;;
17937;SDS011;16051;53.024;8.630;2023-03-24T10:16:48;9.27;;;2.80;;
17937;SDS011;16051;53.024;8.630;2023-03-24T10:21:16;8.93;;;2.20;;
17937;SDS011;16051;53.024;8.630;2023-03-24T10:25:42;6.73;;;2.17;;
17937;SDS011;16051;53.024;8.630;2023-03-24T10:30:04;7.93;;;2.40;;
17937;SDS011;16051;53.024;8.630;2023-03-24T10:38:43;9.73;;;2.63;;
17937;SDS011;16051;53.024;8.630;2023-03-24T10:42:48;7.50;;;2.60;;
17937;SDS011;16051;53.024;8.630;2023-03-24T10:46:51;6.87;;;2.40;;
17937;SDS011;16051;53.024;8.630;2023-03-24T10:51:04;8.67;;;2.80;;
17937;SDS011;16051;53.024;8.630;2023-03-24T10:59:49;7.63;;;2.43;;
17937;SDS011;16051;53.024;8.630;2023-03-24T11:03:57;9.60;;;2.40;;
17937;SDS011;16051;53.024;8.630;2023-03-24T11:12:35;10.53;;;2.17;;
17937;SDS011;16051;53.024;8.630;2023-03-24T11:16:42;7.20;;;2.07;;
17937;SDS011;16051;53.024;8.630;2023-03-24T11:25:49;8.13;;;2.13;;
17937;SDS011;16051;53.024;8.630;2023-03-24T11:34:15;11.70;;;2.80;;
17937;SDS011;16051;53.024;8.630;2023-03-24T11:38:27;8.57;;;2.30;;
17937;SDS011;16051;53.024;8.630;2023-03-24T11:42:30;4.43;;;2.33;;
17937;SDS011;16051;53.024;8.630;2023-03-24T11:46:33;7.30;;;2.23;;
17937;SDS011;16051;53.024;8.630;2023-03-24T11:50:55;8.57;;;2.47;;
17937;SDS011;16051;53.024;8.630;2023-03-24T11:55:00;5.47;;;1.93;;
17937;SDS011;16051;53.024;8.630;2023-03-24T11:59:07;6.37;;;2.13;;
17937;SDS011;16051;53.024;8.630;2023-03-24T12:08:10;7.67;;;2.20;;
17937;SDS011;16051;53.024;8.630;2023-03-24T12:12:26;5.10;;;2.07;;
17937;SDS011;16051;53.024;8.630;2023-03-24T12:16:42;7.37;;;2.23;;
17937;SDS011;16051;53.024;8.630;2023-03-24T12:20:58;6.93;;;2.30;;
17937;SDS011;16051;53.024;8.630;2023-03-24T12:25:16;7.20;;;2.23;;
17937;SDS011;16051;53.024;8.630;2023-03-24T12:34:03;6.73;;;2.27;;
17937;SDS011;16051;53.024;8.630;2023-03-24T12:38:35;7.80;;;2.07;;
17937;SDS011;16051;53.024;8.630;2023-03-24T12:43:00;6.57;;;2.47;;
17937;SDS011;16051;53.024;8.630;2023-03-24T12:47:23;6.63;;;2.13;;
17937;SDS011;16051;53.024;8.630;2023-03-24T12:51:51;9.37;;;2.47;;
17937;SDS011;16051;53.024;8.630;2023-03-24T12:56:17;6.27;;;2.10;;
17937;SDS011;16051;53.024;8.630;2023-03-24T13:21:49;5.10;;;1.83;;
17937;SDS011;16051;53.024;8.630;2023-03-24T13:31:09;5.80;;;2.00;;
17937;SDS011;16051;53.024;8.630;2023-03-24T13:40:18;7.57;;;2.23;;
17937;SDS011;16051;53.024;8.630;2023-03-24T13:44:25;9.03;;;1.87;;
17937;SDS011;16051;53.024;8.630;2023-03-24T13:53:04;9.37;;;2.53;;
17937;SDS011;16051;53.024;8.630;2023-03-24T13:57:16;5.70;;;1.60;;
17937;SDS011;16051;53.024;8.630;2023-03-24T14:01:34;3.83;;;1.40;;
17937;SDS011;16051;53.024;8.630;2023-03-24T14:05:55;4.60;;;1.40;;
17937;SDS011;16051;53.024;8.630;2023-03-24T14:10:00;3.73;;;1.63;;
17937;SDS011;16051;53.024;8.630;2023-03-24T14:15:01;3.07;;;1.33;;
17937;SDS011;16051;53.024;8.630;2023-03-24T14:19:20;5.90;;;1.40;;
17937;SDS011;16051;53.024;8.630;2023-03-24T14:23:30;5.07;;;1.70;;
17937;SDS011;16051;53.024;8.630;2023-03-24T14:27:38;5.03;;;1.50;;
17937;SDS011;16051;53.024;8.630;2023-03-24T14:31:43;4.03;;;1.47;;
17937;SDS011;16051;53.024;8.630;2023-03-24T14:36:00;4.67;;;1.70;;
17937;SDS011;16051;53.024;8.630;2023-03-24T14:44:51;4.67;;;1.77;;
17937;SDS011;16051;53.024;8.630;2023-03-24T14:48:57;7.67;;;2.40;;
17937;SDS011;16051;53.024;8.630;2023-03-24T14:53:05;8.17;;;2.03;;
17937;SDS011;16051;53.024;8.630;2023-03-24T14:57:26;5.50;;;2.10;;
17937;SDS011;16051;53.024;8.630;2023-03-24T15:01:37;5.80;;;1.80;;
17937;SDS011;16051;53.024;8.630;2023-03-24T15:05:46;6.67;;;1.83;;
17937;SDS011;16051;53.024;8.630;2023-03-24T15:09:49;6.60;;;1.90;;
17937;SDS011;16051;53.024;8.630;2023-03-24T15:13:51;3.23;;;1.70;;
17937;SDS011;16051;53.024;8.630;2023-03-24T15:17:54;7.30;;;2.20;;
17937;SDS011;16051;53.024;8.630;2023-03-24T15:22:11;4.47;;;1.50;;
17937;SDS011;16051;53.024;8.630;2023-03-24T15:26:14;5.40;;;1.80;;
17937;SDS011;16051;53.024;8.630;2023-03-24T15:30:21;5.13;;;1.40;;
17937;SDS011;16051;53.024;8.630;2023-03-24T15:34:26;1.83;;;1.37;;
17937;SDS011;16051;53.024;8.630;2023-03-24T15:38:34;5.10;;;1.43;;
17937;SDS011;16051;53.024;8.630;2023-03-24T15:42:38;4.83;;;1.37;;
17937;SDS011;16051;53.024;8.630;2023-03-24T15:46:44;3.40;;;1.20;;
17937;SDS011;16051;53.024;8.630;2023-03-24T15:51:03;2.43;;;1.00;;
17937;SDS011;16051;53.024;8.630;2023-03-24T15:55:13;5.37;;;1.60;;
17937;SDS011;16051;53.024;8.630;2023-03-24T15:59:31;5.10;;;1.50;;
17937;SDS011;16051;53.024;8.630;2023-03-24T16:08:22;4.57;;;1.60;;
17937;SDS011;16051;53.024;8.630;2023-03-24T16:12:29;4.87;;;1.60;;
17937;SDS011;16051;53.024;8.630;2023-03-24T16:16:35;3.43;;;1.60;;
17937;SDS011;16051;53.024;8.630;2023-03-24T16:20:38;3.23;;;1.43;;
17937;SDS011;16051;53.024;8.630;2023-03-24T16:29:13;4.87;;;2.33;;
17937;SDS011;16051;53.024;8.630;2023-03-24T16:33:17;5.67;;;1.70;;
17937;SDS011;16051;53.024;8.630;2023-03-24T16:37:20;2.40;;;1.50;;
17937;SDS011;16051;53.024;8.630;2023-03-24T16:41:38;2.87;;;1.60;;
17937;SDS011;16051;53.024;8.630;2023-03-24T16:45:42;5.03;;;2.10;;
17937;SDS011;16051;53.024;8.630;2023-03-24T16:49:46;4.57;;;1.80;;
17937;SDS011;16051;53.024;8.630;2023-03-24T16:53:48;2.67;;;1.40;;
17937;SDS011;16051;53.024;8.630;2023-03-24T16:57:50;7.07;;;3.50;;
17937;SDS011;16051;53.024;8.630;2023-03-24T17:06:33;3.57;;;1.30;;
17937;SDS011;16051;53.024;8.630;2023-03-24T17:10:37;8.70;;;3.97;;
17937;SDS011;16051;53.024;8.630;2023-03-24T17:14:49;3.27;;;1.30;;
17937;SDS011;16051;53.024;8.630;2023-03-24T17:18:53;4.70;;;1.33;;
17937;SDS011;16051;53.024;8.630;2023-03-24T17:22:55;4.23;;;2.10;;
17937;SDS011;16051;53.024;8.630;2023-03-24T17:26:57;3.93;;;1.87;;
17937;SDS011;16051;53.024;8.630;2023-03-24T17:35:27;9.00;;;1.90;;
17937;SDS011;16051;53.024;8.630;2023-03-24T17:39:30;3.57;;;1.60;;
17937;SDS011;16051;53.024;8.630;2023-03-24T17:43:32;1.73;;;1.33;;
17937;SDS011;16051;53.024;8.630;2023-03-24T17:47:34;3.77;;;1.73;;
17937;SDS011;16051;53.024;8.630;2023-03-24T17:51:38;2.77;;;1.40;;
17937;SDS011;16051;53.024;8.630;2023-03-24T17:55:40;3.60;;;1.70;;
17937;SDS011;16051;53.024;8.630;2023-03-24T17:59:42;4.60;;;2.70;;
17937;SDS011;16051;53.024;8.630;2023-03-24T18:03:44;3.57;;;2.17;;
17937;SDS011;16051;53.024;8.630;2023-03-24T18:12:07;3.20;;;2.00;;
17937;SDS011;16051;53.024;8.630;2023-03-24T18:16:09;3.33;;;1.87;;
17937;SDS011;16051;53.024;8.630;2023-03-24T18:20:12;4.10;;;1.77;;
17937;SDS011;16051;53.024;8.630;2023-03-24T18:24:16;2.70;;;1.60;;
17937;SDS011;16051;53.024;8.630;2023-03-24T18:28:19;1.63;;;1.20;;
17937;SDS011;16051;53.024;8.630;2023-03-24T18:32:22;5.63;;;3.20;;
17937;SDS011;16051;53.024;8.630;2023-03-24T18:36:25;2.57;;;1.57;;
17937;SDS011;16051;53.024;8.630;2023-03-24T18:40:29;4.80;;;1.67;;
17937;SDS011;16051;53.024;8.630;2023-03-24T18:44:31;2.93;;;1.63;;
17937;SDS011;16051;53.024;8.630;2023-03-24T18:48:34;1.63;;;1.00;;
17937;SDS011;16051;53.024;8.630;2023-03-24T18:52:36;3.27;;;1.70;;
17937;SDS011;16051;53.024;8.630;2023-03-24T19:01:30;2.67;;;1.57;;
17937;SDS011;16051;53.024;8.630;2023-03-24T19:05:39;1.63;;;1.10;;
17937;SDS011;16051;53.024;8.630;2023-03-24T19:09:41;3.93;;;1.30;;
17937;SDS011;16051;53.024;8.630;2023-03-24T19:13:44;4.33;;;1.40;;
17937;SDS011;16051;53.024;8.630;2023-03-24T19:17:57;2.57;;;1.13;;
17937;SDS011;16051;53.024;8.630;2023-03-24T19:21:59;2.37;;;1.33;;
17937;SDS011;16051;53.024;8.630;2023-03-24T19:26:01;3.73;;;1.17;;
17937;SDS011;16051;53.024;8.630;2023-03-24T19:30:06;4.53;;;1.27;;
17937;SDS011;16051;53.024;8.630;2023-03-24T19:34:12;3.07;;;1.53;;
17937;SDS011;16051;53.024;8.630;2023-03-24T19:38:14;3.77;;;1.63;;
17937;SDS011;16051;53.024;8.630;2023-03-24T19:42:16;3.33;;;1.50;;
17937;SDS011;16051;53.024;8.630;2023-03-24T20:22:48;3.23;;;1.80;;
17937;SDS011;16051;53.024;8.630;2023-03-24T20:53:11;2.50;;;2.03;;
17937;SDS011;16051;53.024;8.630;2023-03-24T21:01:38;3.47;;;1.30;;
17937;SDS011;16051;53.024;8.630;2023-03-24T21:25:43;2.73;;;1.43;;
17937;SDS011;16051;53.024;8.630;2023-03-24T21:34:14;3.47;;;1.70;;
17937;SDS011;16051;53.024;8.630;2023-03-24T21:38:16;4.10;;;2.20;;
17937;SDS011;16051;53.024;8.630;2023-03-24T21:42:18;4.57;;;2.90;;
17937;SDS011;16051;53.024;8.630;2023-03-24T21:46:21;4.83;;;2.27;;
17937;SDS011;16051;53.024;8.630;2023-03-24T21:56:00;5.37;;;2.50;;
17937;SDS011;16051;53.024;8.630;2023-03-24T22:00:07;6.27;;;3.13;;
17937;SDS011;16051;53.024;8.630;2023-03-24T22:04:13;6.17;;;3.07;;
17937;SDS011;16051;53.024;8.630;2023-03-24T22:08:18;6.30;;;3.40;;
17937;SDS011;16051;53.024;8.630;2023-03-24T22:12:23;5.60;;;3.37;;
17937;SDS011;16051;53.024;8.630;2023-03-24T22:16:25;3.43;;;2.93;;
17937;SDS011;16051;53.024;8.630;2023-03-24T22:20:27;4.80;;;3.20;;
17937;SDS011;16051;53.024;8.630;2023-03-24T22:24:31;5.50;;;3.70;;
17937;SDS011;16051;53.024;8.630;2023-03-24T22:28:35;6.97;;;3.83;;
17937;SDS011;16051;53.024;8.630;2023-03-24T22:32:38;3.97;;;2.80;;
17937;SDS011;16051;53.024;8.630;2023-03-24T22:36:40;4.47;;;2.80;;
17937;SDS011;16051;53.024;8.630;2023-03-24T22:40:43;5.30;;;2.10;;
17937;SDS011;16051;53.024;8.630;2023-03-24T22:44:46;6.27;;;2.20;;
17937;SDS011;16051;53.024;8.630;2023-03-24T22:48:48;3.60;;;2.20;;
17937;SDS011;16051;53.024;8.630;2023-03-24T22:52:51;3.43;;;2.17;;
17937;SDS011;16051;53.024;8.630;2023-03-24T22:56:53;4.97;;;2.00;;
17937;SDS011;16051;53.024;8.630;2023-03-24T23:01:03;3.37;;;1.90;;
17937;SDS011;16051;53.024;8.630;2023-03-24T23:05:06;2.40;;;1.80;;
17937;SDS011;16051;53.024;8.630;2023-03-24T23:09:09;6.50;;;2.40;;
17937;SDS011;16051;53.024;8.630;2023-03-24T23:13:11;3.60;;;2.13;;
17937;SDS011;16051;53.024;8.630;2023-03-24T23:17:16;5.73;;;2.63;;
17937;SDS011;16051;53.024;8.630;2023-03-24T23:21:18;4.07;;;2.33;;
17937;SDS011;16051;53.024;8.630;2023-03-24T23:25:20;3.77;;;2.10;;
17937;SDS011;16051;53.024;8.630;2023-03-24T23:29:23;7.07;;;2.60;;
17937;SDS011;16051;53.024;8.630;2023-03-24T23:33:36;6.13;;;2.97;;
17937;SDS011;16051;53.024;8.630;2023-03-24T23:37:38;4.73;;;2.63;;
17937;SDS011;16051;53.024;8.630;2023-03-24T23:41:58;3.43;;;2.60;;
17937;SDS011;16051;53.024;8.630;2023-03-24T23:46:00;5.00;;;2.97;;
17937;SDS011;16051;53.024;8.630;2023-03-24T23:50:05;3.80;;;2.60;;
17937;SDS011;16051;53.024;8.630;2023-03-24T23:54:08;4.80;;;2.93;;
17937;SDS011;16051;53.024;8.630;2023-03-24T23:58:11;5.03;;;2.87;;
